sensor_id;sensor_type;location;lat;lon;timestamp;P1;durP1;ratioP1;P2;durP2;ratioP2
72053;SDS011;59918;51.280;7.950;2023-09-30T00:01:42;19.38;;;5.43;;
72053;SDS011;59918;51.280;7.950;2023-09-30T00:04:08;21.58;;;6.07;;
72053;SDS011;59918;51.280;7.950;2023-09-30T00:06:33;10.70;;;5.55;;
72053;SDS011;59918;51.280;7.950;2023-09-30T00:08:58;13.52;;;5.80;;
72053;SDS011;59918;51.280;7.950;2023-09-30T00:11:23;11.77;;;5.45;;
72053;SDS011;59918;51.280;7.950;2023-09-30T00:13:49;14.55;;;5.43;;
72053;SDS011;59918;51.280;7.950;2023-09-30T00:16:14;15.45;;;5.57;;
72053;SDS011;59918;51.280;7.950;2023-09-30T00:18:42;14.63;;;5.90;;
72053;SDS011;59918;51.280;7.950;2023-09-30T00:21:07;16.05;;;6.20;;
72053;SDS011;59918;51.280;7.950;2023-09-30T00:23:33;15.65;;;6.13;;
72053;SDS011;59918;51.280;7.950;2023-09-30T00:25:58;19.65;;;5.45;;
72053;SDS011;59918;51.280;7.950;2023-09-30T00:28:23;14.88;;;6.07;;
72053;SDS011;59918;51.280;7.950;2023-09-30T00:30:48;16.17;;;5.68;;
72053;SDS011;59918;51.280;7.950;2023-09-30T00:33:13;15.25;;;6.10;;
72053;SDS011;59918;51.280;7.950;2023-09-30T00:35:39;17.67;;;6.05;;
72053;SDS011;59918;51.280;7.950;2023-09-30T00:38:04;20.20;;;5.65;;
72053;SDS011;59918;51.280;7.950;2023-09-30T00:40:29;13.50;;;6.22;;
72053;SDS011;59918;51.280;7.950;2023-09-30T00:42:54;17.73;;;6.22;;
72053;SDS011;59918;51.280;7.950;2023-09-30T00:45:20;21.60;;;6.93;;
72053;SDS011;59918;51.280;7.950;2023-09-30T00:47:45;15.10;;;6.95;;
72053;SDS011;59918;51.280;7.950;2023-09-30T00:50:10;21.55;;;6.18;;
72053;SDS011;59918;51.280;7.950;2023-09-30T00:52:36;11.52;;;6.30;;
72053;SDS011;59918;51.280;7.950;2023-09-30T00:55:03;18.25;;;6.88;;
72053;SDS011;59918;51.280;7.950;2023-09-30T00:57:29;15.93;;;6.00;;
72053;SDS011;59918;51.280;7.950;2023-09-30T00:59:55;22.80;;;7.50;;
72053;SDS011;59918;51.280;7.950;2023-09-30T01:02:21;9.70;;;5.60;;
72053;SDS011;59918;51.280;7.950;2023-09-30T01:04:46;17.52;;;6.10;;
72053;SDS011;59918;51.280;7.950;2023-09-30T01:07:12;17.70;;;5.95;;
72053;SDS011;59918;51.280;7.950;2023-09-30T01:09:37;17.13;;;6.18;;
72053;SDS011;59918;51.280;7.950;2023-09-30T01:12:03;15.32;;;6.88;;
72053;SDS011;59918;51.280;7.950;2023-09-30T01:14:32;21.13;;;6.72;;
72053;SDS011;59918;51.280;7.950;2023-09-30T01:16:58;18.35;;;6.80;;
72053;SDS011;59918;51.280;7.950;2023-09-30T01:19:23;20.50;;;7.00;;
72053;SDS011;59918;51.280;7.950;2023-09-30T01:21:53;14.45;;;7.53;;
72053;SDS011;59918;51.280;7.950;2023-09-30T01:24:22;13.90;;;5.97;;
72053;SDS011;59918;51.280;7.950;2023-09-30T01:26:47;13.85;;;6.47;;
72053;SDS011;59918;51.280;7.950;2023-09-30T01:29:12;26.33;;;6.93;;
72053;SDS011;59918;51.280;7.950;2023-09-30T01:31:38;23.75;;;6.93;;
72053;SDS011;59918;51.280;7.950;2023-09-30T01:34:03;20.65;;;6.85;;
72053;SDS011;59918;51.280;7.950;2023-09-30T01:36:28;13.48;;;5.90;;
72053;SDS011;59918;51.280;7.950;2023-09-30T01:38:54;16.35;;;6.22;;
72053;SDS011;59918;51.280;7.950;2023-09-30T01:41:19;17.85;;;6.38;;
72053;SDS011;59918;51.280;7.950;2023-09-30T01:43:44;18.38;;;5.97;;
72053;SDS011;59918;51.280;7.950;2023-09-30T01:46:09;15.75;;;6.10;;
72053;SDS011;59918;51.280;7.950;2023-09-30T01:48:35;21.38;;;7.47;;
72053;SDS011;59918;51.280;7.950;2023-09-30T01:51:00;15.77;;;6.55;;
72053;SDS011;59918;51.280;7.950;2023-09-30T01:53:25;20.88;;;6.88;;
72053;SDS011;59918;51.280;7.950;2023-09-30T01:55:50;20.20;;;6.50;;
72053;SDS011;59918;51.280;7.950;2023-09-30T01:58:15;17.58;;;6.57;;
72053;SDS011;59918;51.280;7.950;2023-09-30T02:00:41;18.73;;;6.95;;
72053;SDS011;59918;51.280;7.950;2023-09-30T02:03:06;17.77;;;6.57;;
72053;SDS011;59918;51.280;7.950;2023-09-30T02:05:31;13.30;;;6.18;;
72053;SDS011;59918;51.280;7.950;2023-09-30T02:07:56;13.65;;;5.97;;
72053;SDS011;59918;51.280;7.950;2023-09-30T02:10:22;17.35;;;7.20;;
72053;SDS011;59918;51.280;7.950;2023-09-30T02:12:47;14.98;;;6.43;;
72053;SDS011;59918;51.280;7.950;2023-09-30T02:15:13;19.83;;;5.78;;
72053;SDS011;59918;51.280;7.950;2023-09-30T02:17:38;19.73;;;5.75;;
72053;SDS011;59918;51.280;7.950;2023-09-30T02:20:04;20.27;;;5.97;;
72053;SDS011;59918;51.280;7.950;2023-09-30T02:22:30;21.23;;;6.60;;
72053;SDS011;59918;51.280;7.950;2023-09-30T02:24:55;14.32;;;6.28;;
72053;SDS011;59918;51.280;7.950;2023-09-30T02:27:20;16.88;;;6.22;;
72053;SDS011;59918;51.280;7.950;2023-09-30T02:29:46;15.93;;;5.78;;
72053;SDS011;59918;51.280;7.950;2023-09-30T02:32:11;14.57;;;5.75;;
72053;SDS011;59918;51.280;7.950;2023-09-30T02:34:36;12.55;;;5.55;;
72053;SDS011;59918;51.280;7.950;2023-09-30T02:37:01;14.68;;;6.18;;
72053;SDS011;59918;51.280;7.950;2023-09-30T02:39:27;15.43;;;5.90;;
72053;SDS011;59918;51.280;7.950;2023-09-30T02:41:52;21.60;;;6.60;;
72053;SDS011;59918;51.280;7.950;2023-09-30T02:44:17;15.00;;;5.60;;
72053;SDS011;59918;51.280;7.950;2023-09-30T02:46:42;18.08;;;6.30;;
72053;SDS011;59918;51.280;7.950;2023-09-30T02:49:08;14.05;;;6.05;;
72053;SDS011;59918;51.280;7.950;2023-09-30T02:51:33;24.45;;;6.68;;
72053;SDS011;59918;51.280;7.950;2023-09-30T02:53:58;18.98;;;6.07;;
72053;SDS011;59918;51.280;7.950;2023-09-30T02:56:23;13.30;;;6.10;;
72053;SDS011;59918;51.280;7.950;2023-09-30T02:58:49;13.80;;;5.68;;
72053;SDS011;59918;51.280;7.950;2023-09-30T03:01:14;15.05;;;5.80;;
72053;SDS011;59918;51.280;7.950;2023-09-30T03:03:40;20.25;;;5.88;;
72053;SDS011;59918;51.280;7.950;2023-09-30T03:06:05;16.77;;;4.95;;
72053;SDS011;59918;51.280;7.950;2023-09-30T03:08:30;18.20;;;5.53;;
72053;SDS011;59918;51.280;7.950;2023-09-30T03:10:55;19.05;;;6.22;;
72053;SDS011;59918;51.280;7.950;2023-09-30T03:13:20;15.77;;;5.55;;
72053;SDS011;59918;51.280;7.950;2023-09-30T03:15:46;14.25;;;5.47;;
72053;SDS011;59918;51.280;7.950;2023-09-30T03:18:11;23.75;;;6.10;;
72053;SDS011;59918;51.280;7.950;2023-09-30T03:20:36;19.73;;;5.30;;
72053;SDS011;59918;51.280;7.950;2023-09-30T03:23:01;17.52;;;5.25;;
72053;SDS011;59918;51.280;7.950;2023-09-30T03:25:27;18.15;;;5.45;;
72053;SDS011;59918;51.280;7.950;2023-09-30T03:27:52;13.52;;;4.80;;
72053;SDS011;59918;51.280;7.950;2023-09-30T03:30:18;17.35;;;4.22;;
72053;SDS011;59918;51.280;7.950;2023-09-30T03:32:43;21.13;;;5.60;;
72053;SDS011;59918;51.280;7.950;2023-09-30T03:35:09;17.45;;;5.15;;
72053;SDS011;59918;51.280;7.950;2023-09-30T03:37:38;23.38;;;5.07;;
72053;SDS011;59918;51.280;7.950;2023-09-30T03:40:03;14.93;;;5.35;;
72053;SDS011;59918;51.280;7.950;2023-09-30T03:42:29;23.75;;;5.38;;
72053;SDS011;59918;51.280;7.950;2023-09-30T03:44:54;16.30;;;4.63;;
72053;SDS011;59918;51.280;7.950;2023-09-30T03:47:20;22.08;;;4.78;;
72053;SDS011;59918;51.280;7.950;2023-09-30T03:49:45;16.98;;;5.70;;
72053;SDS011;59918;51.280;7.950;2023-09-30T03:52:11;17.25;;;5.15;;
72053;SDS011;59918;51.280;7.950;2023-09-30T03:54:36;17.75;;;5.00;;
72053;SDS011;59918;51.280;7.950;2023-09-30T03:57:01;18.55;;;5.50;;
72053;SDS011;59918;51.280;7.950;2023-09-30T03:59:27;15.40;;;4.63;;
72053;SDS011;59918;51.280;7.950;2023-09-30T04:01:52;16.75;;;4.43;;
72053;SDS011;59918;51.280;7.950;2023-09-30T04:04:17;14.27;;;4.85;;
72053;SDS011;59918;51.280;7.950;2023-09-30T04:06:42;18.20;;;4.25;;
72053;SDS011;59918;51.280;7.950;2023-09-30T04:09:08;19.30;;;4.78;;
72053;SDS011;59918;51.280;7.950;2023-09-30T04:11:33;16.20;;;4.93;;
72053;SDS011;59918;51.280;7.950;2023-09-30T04:13:58;22.35;;;4.38;;
72053;SDS011;59918;51.280;7.950;2023-09-30T04:16:23;19.80;;;5.40;;
72053;SDS011;59918;51.280;7.950;2023-09-30T04:18:49;19.00;;;5.05;;
72053;SDS011;59918;51.280;7.950;2023-09-30T04:21:14;18.65;;;4.18;;
72053;SDS011;59918;51.280;7.950;2023-09-30T04:23:39;17.92;;;5.47;;
72053;SDS011;59918;51.280;7.950;2023-09-30T04:26:04;18.73;;;4.57;;
72053;SDS011;59918;51.280;7.950;2023-09-30T04:28:29;16.73;;;4.47;;
72053;SDS011;59918;51.280;7.950;2023-09-30T04:30:55;24.48;;;4.68;;
72053;SDS011;59918;51.280;7.950;2023-09-30T04:33:20;16.23;;;4.18;;
72053;SDS011;59918;51.280;7.950;2023-09-30T04:35:45;15.95;;;4.57;;
72053;SDS011;59918;51.280;7.950;2023-09-30T04:38:11;18.70;;;4.70;;
72053;SDS011;59918;51.280;7.950;2023-09-30T04:40:36;15.38;;;4.30;;
72053;SDS011;59918;51.280;7.950;2023-09-30T04:43:02;14.40;;;5.07;;
72053;SDS011;59918;51.280;7.950;2023-09-30T04:45:27;14.77;;;4.22;;
72053;SDS011;59918;51.280;7.950;2023-09-30T04:47:53;14.75;;;3.97;;
72053;SDS011;59918;51.280;7.950;2023-09-30T04:50:19;20.45;;;4.57;;
72053;SDS011;59918;51.280;7.950;2023-09-30T04:52:44;16.35;;;4.20;;
72053;SDS011;59918;51.280;7.950;2023-09-30T04:55:09;19.05;;;4.55;;
72053;SDS011;59918;51.280;7.950;2023-09-30T04:57:35;16.13;;;4.25;;
72053;SDS011;59918;51.280;7.950;2023-09-30T05:00:00;13.27;;;4.22;;
72053;SDS011;59918;51.280;7.950;2023-09-30T05:02:26;15.80;;;4.40;;
72053;SDS011;59918;51.280;7.950;2023-09-30T05:04:52;20.17;;;4.40;;
72053;SDS011;59918;51.280;7.950;2023-09-30T05:07:18;20.27;;;4.72;;
72053;SDS011;59918;51.280;7.950;2023-09-30T05:09:43;13.20;;;5.35;;
72053;SDS011;59918;51.280;7.950;2023-09-30T05:12:08;22.67;;;6.30;;
72053;SDS011;59918;51.280;7.950;2023-09-30T05:14:35;19.95;;;5.90;;
72053;SDS011;59918;51.280;7.950;2023-09-30T05:17:00;22.30;;;5.60;;
72053;SDS011;59918;51.280;7.950;2023-09-30T05:19:26;22.02;;;5.43;;
72053;SDS011;59918;51.280;7.950;2023-09-30T05:21:51;15.60;;;5.93;;
72053;SDS011;59918;51.280;7.950;2023-09-30T05:24:16;17.65;;;5.22;;
72053;SDS011;59918;51.280;7.950;2023-09-30T05:26:41;12.88;;;4.35;;
72053;SDS011;59918;51.280;7.950;2023-09-30T05:29:07;15.88;;;4.97;;
72053;SDS011;59918;51.280;7.950;2023-09-30T05:31:32;15.02;;;4.80;;
72053;SDS011;59918;51.280;7.950;2023-09-30T05:33:57;15.55;;;4.25;;
72053;SDS011;59918;51.280;7.950;2023-09-30T05:36:22;12.48;;;4.28;;
72053;SDS011;59918;51.280;7.950;2023-09-30T05:38:47;17.67;;;4.85;;
72053;SDS011;59918;51.280;7.950;2023-09-30T05:41:14;19.00;;;4.70;;
72053;SDS011;59918;51.280;7.950;2023-09-30T05:43:39;19.65;;;4.97;;
72053;SDS011;59918;51.280;7.950;2023-09-30T05:46:05;20.08;;;5.22;;
72053;SDS011;59918;51.280;7.950;2023-09-30T05:48:31;21.83;;;5.85;;
72053;SDS011;59918;51.280;7.950;2023-09-30T05:50:56;16.27;;;4.97;;
72053;SDS011;59918;51.280;7.950;2023-09-30T05:53:22;18.52;;;5.32;;
72053;SDS011;59918;51.280;7.950;2023-09-30T05:55:47;16.60;;;4.95;;
72053;SDS011;59918;51.280;7.950;2023-09-30T05:58:13;21.05;;;5.82;;
72053;SDS011;59918;51.280;7.950;2023-09-30T06:00:39;15.40;;;4.63;;
72053;SDS011;59918;51.280;7.950;2023-09-30T06:03:05;18.27;;;4.03;;
72053;SDS011;59918;51.280;7.950;2023-09-30T06:05:30;19.00;;;4.75;;
72053;SDS011;59918;51.280;7.950;2023-09-30T06:07:55;14.18;;;4.47;;
72053;SDS011;59918;51.280;7.950;2023-09-30T06:10:22;16.15;;;4.90;;
72053;SDS011;59918;51.280;7.950;2023-09-30T06:12:48;15.32;;;5.13;;
72053;SDS011;59918;51.280;7.950;2023-09-30T06:15:16;15.98;;;4.35;;
72053;SDS011;59918;51.280;7.950;2023-09-30T06:17:42;14.88;;;4.43;;
72053;SDS011;59918;51.280;7.950;2023-09-30T06:20:07;10.25;;;4.75;;
72053;SDS011;59918;51.280;7.950;2023-09-30T06:22:33;13.35;;;4.60;;
72053;SDS011;59918;51.280;7.950;2023-09-30T06:24:58;18.90;;;4.07;;
72053;SDS011;59918;51.280;7.950;2023-09-30T06:27:23;16.00;;;4.18;;
72053;SDS011;59918;51.280;7.950;2023-09-30T06:29:49;13.27;;;3.67;;
72053;SDS011;59918;51.280;7.950;2023-09-30T06:32:14;9.65;;;3.47;;
72053;SDS011;59918;51.280;7.950;2023-09-30T06:34:39;13.25;;;3.70;;
72053;SDS011;59918;51.280;7.950;2023-09-30T06:37:04;15.63;;;3.67;;
72053;SDS011;59918;51.280;7.950;2023-09-30T06:39:29;11.02;;;3.90;;
72053;SDS011;59918;51.280;7.950;2023-09-30T06:41:55;7.68;;;3.22;;
72053;SDS011;59918;51.280;7.950;2023-09-30T06:44:20;8.60;;;3.70;;
72053;SDS011;59918;51.280;7.950;2023-09-30T06:46:45;12.48;;;3.45;;
72053;SDS011;59918;51.280;7.950;2023-09-30T06:49:10;11.38;;;4.00;;
72053;SDS011;59918;51.280;7.950;2023-09-30T06:51:36;9.80;;;3.75;;
72053;SDS011;59918;51.280;7.950;2023-09-30T06:54:03;13.02;;;4.40;;
72053;SDS011;59918;51.280;7.950;2023-09-30T06:56:29;9.90;;;4.05;;
72053;SDS011;59918;51.280;7.950;2023-09-30T06:58:54;6.90;;;3.20;;
72053;SDS011;59918;51.280;7.950;2023-09-30T07:01:20;6.35;;;3.75;;
72053;SDS011;59918;51.280;7.950;2023-09-30T07:03:45;11.73;;;3.28;;
72053;SDS011;59918;51.280;7.950;2023-09-30T07:06:10;11.02;;;3.72;;
72053;SDS011;59918;51.280;7.950;2023-09-30T07:08:35;8.25;;;3.85;;
72053;SDS011;59918;51.280;7.950;2023-09-30T07:11:01;14.90;;;3.47;;
72053;SDS011;59918;51.280;7.950;2023-09-30T07:13:26;12.27;;;2.83;;
72053;SDS011;59918;51.280;7.950;2023-09-30T07:15:51;9.05;;;3.15;;
72053;SDS011;59918;51.280;7.950;2023-09-30T07:18:17;6.22;;;3.42;;
72053;SDS011;59918;51.280;7.950;2023-09-30T07:20:42;17.83;;;4.10;;
72053;SDS011;59918;51.280;7.950;2023-09-30T07:23:07;13.43;;;4.10;;
72053;SDS011;59918;51.280;7.950;2023-09-30T07:25:32;12.00;;;4.60;;
72053;SDS011;59918;51.280;7.950;2023-09-30T07:27:58;13.48;;;4.40;;
72053;SDS011;59918;51.280;7.950;2023-09-30T07:30:23;9.65;;;4.15;;
72053;SDS011;59918;51.280;7.950;2023-09-30T07:32:48;9.80;;;4.40;;
72053;SDS011;59918;51.280;7.950;2023-09-30T07:35:14;13.73;;;4.30;;
72053;SDS011;59918;51.280;7.950;2023-09-30T07:37:39;8.13;;;4.28;;
72053;SDS011;59918;51.280;7.950;2023-09-30T07:40:04;9.20;;;4.60;;
72053;SDS011;59918;51.280;7.950;2023-09-30T07:42:30;11.50;;;4.43;;
72053;SDS011;59918;51.280;7.950;2023-09-30T07:44:56;7.95;;;3.80;;
72053;SDS011;59918;51.280;7.950;2023-09-30T07:47:21;12.02;;;4.32;;
72053;SDS011;59918;51.280;7.950;2023-09-30T07:49:47;8.48;;;4.30;;
72053;SDS011;59918;51.280;7.950;2023-09-30T07:52:12;9.52;;;3.72;;
72053;SDS011;59918;51.280;7.950;2023-09-30T07:54:37;8.52;;;3.83;;
72053;SDS011;59918;51.280;7.950;2023-09-30T07:57:02;10.10;;;4.22;;
72053;SDS011;59918;51.280;7.950;2023-09-30T07:59:28;5.80;;;3.60;;
72053;SDS011;59918;51.280;7.950;2023-09-30T08:01:53;8.27;;;4.75;;
72053;SDS011;59918;51.280;7.950;2023-09-30T08:04:18;11.23;;;4.03;;
72053;SDS011;59918;51.280;7.950;2023-09-30T08:06:44;9.80;;;4.70;;
72053;SDS011;59918;51.280;7.950;2023-09-30T08:09:09;11.50;;;5.30;;
72053;SDS011;59918;51.280;7.950;2023-09-30T08:11:37;13.98;;;4.38;;
72053;SDS011;59918;51.280;7.950;2023-09-30T08:14:03;7.80;;;4.35;;
72053;SDS011;59918;51.280;7.950;2023-09-30T08:16:28;8.38;;;4.53;;
72053;SDS011;59918;51.280;7.950;2023-09-30T08:18:54;10.77;;;4.90;;
72053;SDS011;59918;51.280;7.950;2023-09-30T08:21:19;12.13;;;4.28;;
72053;SDS011;59918;51.280;7.950;2023-09-30T08:23:44;6.85;;;4.03;;
72053;SDS011;59918;51.280;7.950;2023-09-30T08:26:09;10.35;;;4.03;;
72053;SDS011;59918;51.280;7.950;2023-09-30T08:28:35;7.65;;;3.85;;
72053;SDS011;59918;51.280;7.950;2023-09-30T08:31:03;10.52;;;4.03;;
72053;SDS011;59918;51.280;7.950;2023-09-30T08:33:29;4.82;;;3.55;;
72053;SDS011;59918;51.280;7.950;2023-09-30T08:35:55;8.68;;;3.25;;
72053;SDS011;59918;51.280;7.950;2023-09-30T08:38:20;8.90;;;4.55;;
72053;SDS011;59918;51.280;7.950;2023-09-30T08:40:45;6.40;;;3.33;;
72053;SDS011;59918;51.280;7.950;2023-09-30T08:43:12;8.60;;;3.88;;
72053;SDS011;59918;51.280;7.950;2023-09-30T08:45:40;8.00;;;3.15;;
72053;SDS011;59918;51.280;7.950;2023-09-30T08:48:08;8.45;;;3.40;;
72053;SDS011;59918;51.280;7.950;2023-09-30T08:50:34;10.13;;;3.88;;
72053;SDS011;59918;51.280;7.950;2023-09-30T08:53:00;9.98;;;3.03;;
72053;SDS011;59918;51.280;7.950;2023-09-30T08:55:28;12.70;;;3.15;;
72053;SDS011;59918;51.280;7.950;2023-09-30T08:57:53;11.27;;;3.67;;
72053;SDS011;59918;51.280;7.950;2023-09-30T09:00:20;6.00;;;2.72;;
72053;SDS011;59918;51.280;7.950;2023-09-30T09:02:46;6.70;;;3.85;;
72053;SDS011;59918;51.280;7.950;2023-09-30T09:05:11;8.93;;;3.60;;
72053;SDS011;59918;51.280;7.950;2023-09-30T09:07:36;10.05;;;3.40;;
72053;SDS011;59918;51.280;7.950;2023-09-30T09:10:02;7.13;;;3.15;;
72053;SDS011;59918;51.280;7.950;2023-09-30T09:12:35;7.35;;;3.78;;
72053;SDS011;59918;51.280;7.950;2023-09-30T09:15:01;8.50;;;3.10;;
72053;SDS011;59918;51.280;7.950;2023-09-30T09:17:43;8.52;;;3.00;;
72053;SDS011;59918;51.280;7.950;2023-09-30T09:20:16;5.03;;;2.83;;
72053;SDS011;59918;51.280;7.950;2023-09-30T09:22:43;7.72;;;3.42;;
72053;SDS011;59918;51.280;7.950;2023-09-30T09:25:09;8.52;;;3.25;;
72053;SDS011;59918;51.280;7.950;2023-09-30T09:27:36;7.85;;;3.38;;
72053;SDS011;59918;51.280;7.950;2023-09-30T09:30:23;11.10;;;3.67;;
72053;SDS011;59918;51.280;7.950;2023-09-30T09:32:58;11.65;;;3.35;;
72053;SDS011;59918;51.280;7.950;2023-09-30T09:35:28;6.45;;;3.13;;
72053;SDS011;59918;51.280;7.950;2023-09-30T09:37:57;8.65;;;4.13;;
72053;SDS011;59918;51.280;7.950;2023-09-30T09:40:25;6.75;;;4.20;;
72053;SDS011;59918;51.280;7.950;2023-09-30T09:42:55;6.90;;;4.32;;
72053;SDS011;59918;51.280;7.950;2023-09-30T09:45:22;5.72;;;4.68;;
72053;SDS011;59918;51.280;7.950;2023-09-30T09:47:49;9.95;;;4.50;;
72053;SDS011;59918;51.280;7.950;2023-09-30T09:50:15;5.93;;;4.43;;
72053;SDS011;59918;51.280;7.950;2023-09-30T09:52:41;8.07;;;4.55;;
72053;SDS011;59918;51.280;7.950;2023-09-30T09:55:07;9.15;;;4.97;;
72053;SDS011;59918;51.280;7.950;2023-09-30T09:57:34;8.45;;;5.05;;
72053;SDS011;59918;51.280;7.950;2023-09-30T10:00:01;8.07;;;4.70;;
72053;SDS011;59918;51.280;7.950;2023-09-30T10:02:27;9.63;;;5.20;;
72053;SDS011;59918;51.280;7.950;2023-09-30T10:04:53;5.28;;;4.15;;
72053;SDS011;59918;51.280;7.950;2023-09-30T10:07:22;8.52;;;5.28;;
72053;SDS011;59918;51.280;7.950;2023-09-30T10:09:52;7.22;;;4.03;;
72053;SDS011;59918;51.280;7.950;2023-09-30T10:12:18;6.95;;;4.70;;
72053;SDS011;59918;51.280;7.950;2023-09-30T10:14:44;5.53;;;4.45;;
72053;SDS011;59918;51.280;7.950;2023-09-30T10:17:09;8.48;;;4.40;;
72053;SDS011;59918;51.280;7.950;2023-09-30T10:19:35;8.07;;;4.35;;
72053;SDS011;59918;51.280;7.950;2023-09-30T10:24:43;6.53;;;4.28;;
72053;SDS011;59918;51.280;7.950;2023-09-30T10:36:01;5.15;;;4.05;;
72053;SDS011;59918;51.280;7.950;2023-09-30T10:40:48;10.07;;;5.13;;
72053;SDS011;59918;51.280;7.950;2023-09-30T10:43:30;7.70;;;4.20;;
72053;SDS011;59918;51.280;7.950;2023-09-30T10:46:00;6.88;;;3.95;;
72053;SDS011;59918;51.280;7.950;2023-09-30T10:50:51;9.03;;;4.40;;
72053;SDS011;59918;51.280;7.950;2023-09-30T10:53:18;8.23;;;4.68;;
72053;SDS011;59918;51.280;7.950;2023-09-30T10:55:50;5.28;;;3.83;;
72053;SDS011;59918;51.280;7.950;2023-09-30T10:58:20;5.38;;;4.10;;
72053;SDS011;59918;51.280;7.950;2023-09-30T11:00:52;7.93;;;4.53;;
72053;SDS011;59918;51.280;7.950;2023-09-30T11:03:19;6.45;;;4.10;;
72053;SDS011;59918;51.280;7.950;2023-09-30T11:05:47;4.00;;;3.33;;
72053;SDS011;59918;51.280;7.950;2023-09-30T11:08:13;8.20;;;4.25;;
72053;SDS011;59918;51.280;7.950;2023-09-30T11:10:46;7.28;;;3.95;;
72053;SDS011;59918;51.280;7.950;2023-09-30T11:13:12;6.80;;;4.40;;
72053;SDS011;59918;51.280;7.950;2023-09-30T11:15:37;6.75;;;4.10;;
72053;SDS011;59918;51.280;7.950;2023-09-30T11:18:12;6.97;;;4.88;;
72053;SDS011;59918;51.280;7.950;2023-09-30T11:20:38;5.80;;;3.35;;
72053;SDS011;59918;51.280;7.950;2023-09-30T11:23:04;6.28;;;4.10;;
72053;SDS011;59918;51.280;7.950;2023-09-30T11:25:34;6.15;;;3.70;;
72053;SDS011;59918;51.280;7.950;2023-09-30T11:28:16;6.07;;;4.05;;
72053;SDS011;59918;51.280;7.950;2023-09-30T11:30:56;5.32;;;3.60;;
72053;SDS011;59918;51.280;7.950;2023-09-30T11:33:22;6.28;;;3.13;;
72053;SDS011;59918;51.280;7.950;2023-09-30T11:36:00;7.60;;;3.38;;
72053;SDS011;59918;51.280;7.950;2023-09-30T11:38:30;6.22;;;3.15;;
72053;SDS011;59918;51.280;7.950;2023-09-30T11:41:05;4.43;;;2.95;;
72053;SDS011;59918;51.280;7.950;2023-09-30T11:43:31;4.85;;;3.08;;
72053;SDS011;59918;51.280;7.950;2023-09-30T11:46:12;3.90;;;2.83;;
72053;SDS011;59918;51.280;7.950;2023-09-30T11:48:38;6.80;;;2.88;;
72053;SDS011;59918;51.280;7.950;2023-09-30T11:51:03;5.70;;;3.08;;
72053;SDS011;59918;51.280;7.950;2023-09-30T11:53:29;7.20;;;3.05;;
72053;SDS011;59918;51.280;7.950;2023-09-30T11:55:55;3.65;;;2.92;;
72053;SDS011;59918;51.280;7.950;2023-09-30T11:58:27;6.70;;;3.13;;
72053;SDS011;59918;51.280;7.950;2023-09-30T12:00:56;4.88;;;3.20;;
72053;SDS011;59918;51.280;7.950;2023-09-30T12:03:23;5.72;;;2.80;;
72053;SDS011;59918;51.280;7.950;2023-09-30T12:05:48;4.80;;;2.63;;
72053;SDS011;59918;51.280;7.950;2023-09-30T12:08:14;6.07;;;2.97;;
72053;SDS011;59918;51.280;7.950;2023-09-30T12:10:39;8.93;;;2.97;;
72053;SDS011;59918;51.280;7.950;2023-09-30T12:13:04;6.43;;;2.88;;
72053;SDS011;59918;51.280;7.950;2023-09-30T12:15:30;6.47;;;2.80;;
72053;SDS011;59918;51.280;7.950;2023-09-30T12:17:55;3.65;;;2.60;;
72053;SDS011;59918;51.280;7.950;2023-09-30T12:20:29;5.40;;;2.63;;
72053;SDS011;59918;51.280;7.950;2023-09-30T12:22:54;8.90;;;2.97;;
72053;SDS011;59918;51.280;7.950;2023-09-30T12:25:19;5.37;;;2.30;;
72053;SDS011;59918;51.280;7.950;2023-09-30T12:27:45;4.53;;;2.40;;
72053;SDS011;59918;51.280;7.950;2023-09-30T12:30:10;5.20;;;2.80;;
72053;SDS011;59918;51.280;7.950;2023-09-30T12:32:35;6.13;;;2.63;;
72053;SDS011;59918;51.280;7.950;2023-09-30T12:35:00;6.57;;;3.00;;
72053;SDS011;59918;51.280;7.950;2023-09-30T12:37:26;3.20;;;2.33;;
72053;SDS011;59918;51.280;7.950;2023-09-30T12:39:51;6.05;;;2.03;;
72053;SDS011;59918;51.280;7.950;2023-09-30T12:42:16;4.77;;;2.23;;
72053;SDS011;59918;51.280;7.950;2023-09-30T12:44:41;3.15;;;2.28;;
72053;SDS011;59918;51.280;7.950;2023-09-30T12:47:07;4.13;;;2.50;;
72053;SDS011;59918;51.280;7.950;2023-09-30T12:49:32;5.00;;;2.47;;
72053;SDS011;59918;51.280;7.950;2023-09-30T12:51:57;4.00;;;2.50;;
72053;SDS011;59918;51.280;7.950;2023-09-30T12:54:22;5.15;;;2.63;;
72053;SDS011;59918;51.280;7.950;2023-09-30T12:56:48;7.03;;;2.80;;
72053;SDS011;59918;51.280;7.950;2023-09-30T12:59:13;3.72;;;2.33;;
72053;SDS011;59918;51.280;7.950;2023-09-30T13:01:38;2.92;;;2.28;;
72053;SDS011;59918;51.280;7.950;2023-09-30T13:04:03;4.93;;;2.30;;
72053;SDS011;59918;51.280;7.950;2023-09-30T13:06:29;4.35;;;2.47;;
72053;SDS011;59918;51.280;7.950;2023-09-30T13:08:54;6.03;;;2.20;;
72053;SDS011;59918;51.280;7.950;2023-09-30T13:11:19;4.88;;;2.50;;
72053;SDS011;59918;51.280;7.950;2023-09-30T13:13:45;5.15;;;2.53;;
72053;SDS011;59918;51.280;7.950;2023-09-30T13:16:10;5.47;;;2.67;;
72053;SDS011;59918;51.280;7.950;2023-09-30T13:18:36;3.03;;;2.28;;
72053;SDS011;59918;51.280;7.950;2023-09-30T13:21:02;5.95;;;2.97;;
72053;SDS011;59918;51.280;7.950;2023-09-30T13:23:27;3.10;;;2.40;;
72053;SDS011;59918;51.280;7.950;2023-09-30T13:25:53;5.32;;;2.58;;
72053;SDS011;59918;51.280;7.950;2023-09-30T13:28:19;5.68;;;2.58;;
72053;SDS011;59918;51.280;7.950;2023-09-30T13:30:44;6.53;;;2.47;;
72053;SDS011;59918;51.280;7.950;2023-09-30T13:33:09;4.83;;;3.27;;
72053;SDS011;59918;51.280;7.950;2023-09-30T13:35:35;3.73;;;2.20;;
72053;SDS011;59918;51.280;7.950;2023-09-30T13:38:00;5.40;;;2.13;;
72053;SDS011;59918;51.280;7.950;2023-09-30T13:40:25;5.70;;;2.53;;
72053;SDS011;59918;51.280;7.950;2023-09-30T13:42:50;3.80;;;2.38;;
72053;SDS011;59918;51.280;7.950;2023-09-30T13:45:16;4.30;;;2.70;;
72053;SDS011;59918;51.280;7.950;2023-09-30T13:47:41;2.65;;;1.73;;
72053;SDS011;59918;51.280;7.950;2023-09-30T13:50:06;3.53;;;2.07;;
72053;SDS011;59918;51.280;7.950;2023-09-30T13:52:33;5.88;;;2.38;;
72053;SDS011;59918;51.280;7.950;2023-09-30T13:54:59;4.13;;;2.45;;
72053;SDS011;59918;51.280;7.950;2023-09-30T13:57:24;3.55;;;2.10;;
72053;SDS011;59918;51.280;7.950;2023-09-30T13:59:49;3.25;;;1.90;;
72053;SDS011;59918;51.280;7.950;2023-09-30T14:02:15;3.22;;;2.13;;
72053;SDS011;59918;51.280;7.950;2023-09-30T14:04:40;6.10;;;2.10;;
72053;SDS011;59918;51.280;7.950;2023-09-30T14:07:05;5.90;;;2.00;;
72053;SDS011;59918;51.280;7.950;2023-09-30T14:09:31;4.13;;;2.08;;
72053;SDS011;59918;51.280;7.950;2023-09-30T14:11:56;7.55;;;2.28;;
72053;SDS011;59918;51.280;7.950;2023-09-30T14:14:21;3.72;;;1.80;;
72053;SDS011;59918;51.280;7.950;2023-09-30T14:16:46;3.27;;;2.03;;
72053;SDS011;59918;51.280;7.950;2023-09-30T14:19:12;6.07;;;2.30;;
72053;SDS011;59918;51.280;7.950;2023-09-30T14:21:38;3.80;;;2.08;;
72053;SDS011;59918;51.280;7.950;2023-09-30T14:24:03;3.78;;;1.92;;
72053;SDS011;59918;51.280;7.950;2023-09-30T14:26:28;4.45;;;2.00;;
72053;SDS011;59918;51.280;7.950;2023-09-30T14:28:54;4.87;;;2.33;;
72053;SDS011;59918;51.280;7.950;2023-09-30T14:31:19;3.28;;;2.00;;
72053;SDS011;59918;51.280;7.950;2023-09-30T14:33:44;4.25;;;2.10;;
72053;SDS011;59918;51.280;7.950;2023-09-30T14:36:10;3.07;;;2.10;;
72053;SDS011;59918;51.280;7.950;2023-09-30T14:38:35;4.53;;;2.13;;
72053;SDS011;59918;51.280;7.950;2023-09-30T14:41:00;2.60;;;2.27;;
72053;SDS011;59918;51.280;7.950;2023-09-30T14:43:25;4.10;;;2.17;;
72053;SDS011;59918;51.280;7.950;2023-09-30T14:45:51;3.40;;;1.90;;
72053;SDS011;59918;51.280;7.950;2023-09-30T14:48:16;3.93;;;1.93;;
72053;SDS011;59918;51.280;7.950;2023-09-30T14:50:48;3.35;;;2.03;;